Time;durP1;ratioP1;P1;durP2;ratioP2;P2;SDS_P1;SDS_P2;PMS_P1;PMS_P2;Temp;Humidity;BMP_temperature;BMP_pressure;BME280_temperature;BME280_humidity;BME280_pressure;Samples;Min_cycle;Max_cycle;Signal;HPM_P1;HPM_P2
2022/03/19 07:05:05;;;;;;;;;37.00;31.50;;;;;11.36;92.89;103088.03;6315692;22;46220;31
2022/03/19 07:07:31;;;;;;;;;45.00;38.00;;;;;11.21;93.06;103066.66;6360691;22;45298;-86
2022/03/19 07:09:56;;;;;;;;;48.50;36.00;;;;;11.33;93.24;103078.97;6364599;22;45170;-87
2022/03/19 07:12:22;;;;;;;;;48.75;36.50;;;;;11.37;93.23;103081.97;6362377;22;45356;-87
2022/03/19 07:14:47;;;;;;;;;53.75;39.25;;;;;11.42;93.83;103076.13;6335979;22;47969;-87
2022/03/19 07:17:13;;;;;;;;;42.75;36.25;;;;;11.49;94.06;103071.47;6368034;22;45302;-87
2022/03/19 07:19:38;;;;;;;;;45.25;38.25;;;;;11.59;94.66;103086.31;6364244;22;45829;-86
2022/03/19 07:22:04;;;;;;;;;54.75;41.75;;;;;11.62;93.88;103083.91;6364686;22;52103;-88
2022/03/19 07:24:31;;;;;;;;;51.00;39.75;;;;;11.64;93.91;103084.03;6336213;22;46547;-87
2022/03/19 07:26:56;;;;;;;;;58.50;39.25;;;;;11.73;94.17;103086.44;6363842;22;45478;-88
2022/03/19 07:29:21;;;;;;;;;47.50;38.00;;;;;11.79;94.17;103093.91;6359513;22;45382;-87
2022/03/19 07:31:47;;;;;;;;;49.50;41.50;;;;;11.88;94.45;103092.00;6364404;22;45340;-87
2022/03/19 07:34:13;;;;;;;;;39.75;31.25;;;;;11.91;94.58;103086.97;6334208;22;57085;-89
2022/03/19 07:36:38;;;;;;;;;53.00;40.50;;;;;11.94;94.51;103076.69;6365348;22;45375;-87
2022/03/19 07:39:04;;;;;;;;;41.25;35.75;;;;;12.08;95.05;103090.00;6362045;22;45311;-88
2022/03/19 07:41:48;;;;;;;;;40.25;37.75;;;;;12.11;94.94;103082.31;6365088;22;45214;-88
2022/03/19 07:44:15;;;;;;;;;48.25;41.50;;;;;12.16;95.23;103085.38;6335617;22;47529;-88
2022/03/19 07:46:42;;;;;;;;;52.75;40.50;;;;;12.23;95.36;103079.78;6364072;22;45364;-89
2022/03/19 07:49:08;;;;;;;;;55.25;41.75;;;;;12.27;95.18;103087.09;6335953;22;45392;-87
2022/03/19 07:51:33;;;;;;;;;62.75;43.75;;;;;12.30;95.44;103073.25;6363269;22;45355;-85
2022/03/19 07:53:58;;;;;;;;;48.50;38.00;;;;;12.37;95.55;103083.44;6334795;22;46314;-87
2022/03/19 07:56:24;;;;;;;;;60.00;44.75;;;;;12.44;95.58;103074.31;6364038;22;52029;-87
2022/03/19 07:58:50;;;;;;;;;53.75;40.75;;;;;12.47;95.79;103079.78;6370420;22;45284;-89
2022/03/19 08:01:19;;;;;;;;;59.00;43.25;;;;;12.61;95.89;103078.19;6362504;22;45320;-87
2022/03/19 08:03:45;;;;;;;;;53.00;41.75;;;;;12.61;96.45;103085.16;6372231;22;45455;-91
2022/03/19 08:06:11;;;;;;;;;54.75;41.75;;;;;12.65;96.04;103084.63;6390516;22;45276;-87
2022/03/19 08:08:37;;;;;;;;;53.00;44.75;;;;;12.72;96.04;103075.44;6404140;22;45244;-87
2022/03/19 08:11:03;;;;;;;;;55.00;44.00;;;;;12.81;96.41;103069.91;6402655;22;45322;-87
2022/03/19 08:13:29;;;;;;;;;56.25;45.25;;;;;12.88;96.21;103071.31;6398754;22;46312;-87
2022/03/19 08:15:55;;;;;;;;;59.50;45.25;;;;;12.93;95.94;103073.47;6421840;22;45264;-87
2022/03/19 08:18:21;;;;;;;;;66.00;48.25;;;;;13.02;96.50;103064.38;6422528;22;45282;-87
2022/03/19 08:20:46;;;;;;;;;53.25;43.25;;;;;13.12;96.56;103079.16;6421316;22;45345;-88
2022/03/19 08:23:15;;;;;;;;;55.00;42.50;;;;;13.23;96.60;103072.94;6396134;22;46351;-88
2022/03/19 08:25:42;;;;;;;;;56.00;42.25;;;;;13.24;96.30;103066.88;6422091;22;45677;-88
2022/03/19 08:28:08;;;;;;;;;51.25;41.00;;;;;13.28;96.58;103068.91;6396830;22;45187;-88
2022/03/19 08:30:34;;;;;;;;;57.75;44.25;;;;;13.39;96.51;103069.69;6395549;22;45596;-89
2022/03/19 08:33:00;;;;;;;;;53.75;42.50;;;;;13.45;96.40;103068.28;6396414;22;45337;-87
2022/03/19 08:35:25;;;;;;;;;59.50;44.25;;;;;13.49;96.12;103054.50;6396425;22;45321;-88
2022/03/19 08:40:15;;;;;;;;;59.00;46.00;;;;;13.51;96.26;103050.25;6394310;22;45388;-89
2022/03/19 08:40:36;;;;;;;;;53.50;42.50;;;;;13.54;96.22;103057.47;6396530;22;45456;-87
2022/03/19 08:43:01;;;;;;;;;57.00;44.50;;;;;13.59;96.59;103051.75;6393381;22;61053;-87
2022/03/19 08:45:27;;;;;;;;;59.50;45.00;;;;;13.70;96.49;103056.84;6396001;22;45370;-87
2022/03/19 08:47:52;;;;;;;;;53.75;44.75;;;;;13.77;96.70;103052.91;6397707;22;45304;-86
2022/03/19 08:50:18;;;;;;;;;56.50;46.25;;;;;13.85;96.69;103055.28;6395560;22;45487;-87
2022/03/19 08:52:43;;;;;;;;;62.75;46.00;;;;;13.99;96.31;103055.31;6397433;22;46140;-87
2022/03/19 08:55:09;;;;;;;;;61.25;46.00;;;;;14.08;96.51;103055.03;6397928;22;45271;-87
2022/03/19 08:57:35;;;;;;;;;64.75;48.75;;;;;14.13;96.38;103053.59;6422260;22;45346;-87
2022/03/19 09:00:01;;;;;;;;;67.00;47.00;;;;;14.24;96.21;103056.06;6395320;22;45456;-88
2022/03/19 09:02:26;;;;;;;;;55.00;42.75;;;;;14.31;95.96;103050.38;6395467;22;48401;-87
2022/03/19 09:04:52;;;;;;;;;63.00;47.75;;;;;14.40;95.96;103061.59;6407765;22;45262;-86
2022/03/19 09:07:18;;;;;;;;;60.50;47.50;;;;;14.44;95.84;103048.53;6397295;22;45260;-86
2022/03/19 09:09:44;;;;;;;;;56.25;45.75;;;;;14.46;95.86;103057.47;6397015;22;45334;-88
2022/03/19 09:12:10;;;;;;;;;46.25;39.00;;;;;14.50;95.14;103063.09;6399715;22;46486;-88
2022/03/19 09:14:35;;;;;;;;;58.00;45.25;;;;;14.55;95.37;103060.75;6399469;22;45299;-88
2022/03/19 09:17:01;;;;;;;;;59.00;47.75;;;;;14.60;95.79;103047.84;6429163;22;45380;-88
2022/03/19 09:19:27;;;;;;;;;58.50;44.50;;;;;14.62;95.23;103044.50;6425522;22;45448;-87
2022/03/19 09:21:53;;;;;;;;;60.50;46.25;;;;;14.70;95.80;103038.78;6398230;22;45406;-86
2022/03/19 09:24:19;;;;;;;;;61.25;45.50;;;;;14.82;95.86;103055.44;6422904;22;45701;-86
2022/03/19 09:26:44;;;;;;;;;50.00;40.50;;;;;14.88;95.56;103044.38;6397994;22;45298;-86
2022/03/19 09:29:09;;;;;;;;;64.50;44.75;;;;;14.96;95.44;103036.94;6395684;22;45236;-85
2022/03/19 09:31:35;;;;;;;;;57.50;45.50;;;;;15.06;95.66;103027.88;6398397;22;48545;-86
2022/03/19 09:34:00;;;;;;;;;61.00;48.25;;;;;15.17;94.96;103040.06;6396775;22;45347;-86
2022/03/19 09:36:25;;;;;;;;;60.00;46.75;;;;;15.24;95.18;103032.50;6426095;22;45308;-85
2022/03/19 09:38:51;;;;;;;;;61.50;47.00;;;;;15.30;94.78;103030.25;6397881;22;45342;-86
2022/03/19 09:41:16;;;;;;;;;64.75;48.75;;;;;15.43;94.93;103031.94;6398875;22;46706;-87
2022/03/19 09:43:42;;;;;;;;;59.75;49.00;;;;;15.55;94.33;103036.13;6400361;22;45269;-86
2022/03/19 09:46:07;;;;;;;;;61.00;46.25;;;;;15.62;94.66;103031.31;6401528;22;45235;-87
2022/03/19 09:48:33;;;;;;;;;60.25;47.75;;;;;15.70;93.72;103026.47;6397954;22;45401;-87
2022/03/19 09:50:58;;;;;;;;;64.75;47.25;;;;;15.75;94.41;103024.09;6397737;22;47703;-87
2022/03/19 09:53:26;;;;;;;;;61.00;46.25;;;;;15.92;94.73;103022.50;6397737;22;45361;-86
2022/03/19 09:55:57;;;;;;;;;62.50;47.25;;;;;15.99;94.42;103013.16;6398022;22;45275;-86
2022/03/19 09:58:23;;;;;;;;;65.00;49.50;;;;;16.12;93.43;103006.91;6396967;22;45280;-87
2022/03/19 10:00:49;;;;;;;;;64.75;48.00;;;;;16.23;94.07;103012.84;6395043;22;47893;-87
2022/03/19 10:03:14;;;;;;;;;65.25;48.00;;;;;16.30;93.42;103003.50;6398609;22;45323;-87
2022/03/19 10:08:43;;;;;;;;;53.50;44.00;;;;;16.45;91.62;102998.16;6399823;22;45780;-87
2022/03/19 10:11:10;;;;;;;;;60.00;46.25;;;;;16.58;92.39;102996.19;6398671;22;45667;-87
2022/03/19 10:13:38;;;;;;;;;58.00;44.25;;;;;16.66;91.50;102997.56;6430011;22;46795;-88
2022/03/19 10:16:04;;;;;;;;;59.75;45.50;;;;;16.72;90.91;102984.66;6396299;22;45665;-90
2022/03/19 10:18:30;;;;;;;;;59.75;46.50;;;;;16.82;90.72;102985.16;6398802;22;45603;-90
2022/03/19 10:21:01;;;;;;;;;59.00;44.50;;;;;17.01;90.28;102992.38;6425236;22;48900;-86
2022/03/19 10:23:35;;;;;;;;;57.00;45.25;;;;;17.09;89.48;102991.06;6408155;22;45306;-87
2022/03/19 10:26:01;;;;;;;;;59.50;47.75;;;;;17.05;88.53;102969.59;6396439;22;45345;-90
2022/03/19 10:28:32;;;;;;;;;54.75;44.25;;;;;17.21;88.63;102987.28;6396898;22;45329;-87
2022/03/19 10:30:58;;;;;;;;;58.00;48.00;;;;;17.15;87.49;102971.91;6395262;22;47543;-88
2022/03/19 10:33:31;;;;;;;;;51.25;43.25;;;;;17.24;86.47;102967.97;6423048;22;45212;-88
2022/03/19 10:36:05;;;;;;;;;57.00;44.00;;;;;17.35;87.80;102963.19;6398110;22;45203;-88
2022/03/19 10:38:43;;;;;;;;;60.25;45.75;;;;;17.42;88.44;102966.25;6395303;22;45630;-87
2022/03/19 10:41:10;;;;;;;;;53.00;42.25;;;;;17.45;87.57;102957.53;6422079;22;47381;-89
2022/03/19 10:43:35;;;;;;;;;56.75;43.75;;;;;17.56;87.47;102976.69;6397402;22;45362;-90
2022/03/19 10:46:03;;;;;;;;;54.50;42.25;;;;;17.67;86.58;102961.34;6422117;22;45731;-87
2022/03/19 10:48:29;;;;;;;;;59.00;45.00;;;;;17.67;86.37;102971.03;6422229;22;45471;-88
2022/03/19 10:50:55;;;;;;;;;56.75;45.50;;;;;17.78;85.78;102959.22;6395336;22;46505;-88
2022/03/19 10:53:23;;;;;;;;;53.25;38.25;;;;;17.86;85.51;102946.31;6397441;22;45366;-90
2022/03/19 10:55:48;;;;;;;;;53.00;43.75;;;;;17.87;85.37;102945.50;6421799;22;45372;-88
2022/03/19 10:58:14;;;;;;;;;52.25;44.25;;;;;17.97;83.97;102958.41;6395129;22;45513;-88
2022/03/19 11:00:40;;;;;;;;;51.75;39.75;;;;;18.08;83.82;102950.06;6396983;22;46116;-88
2022/03/19 11:03:19;;;;;;;;;52.75;45.00;;;;;18.19;84.23;102950.59;6422130;22;45716;-88
2022/03/19 11:05:45;;;;;;;;;54.50;42.75;;;;;18.20;83.14;102958.66;6421459;22;45276;-89
2022/03/19 11:08:13;;;;;;;;;51.50;42.25;;;;;18.28;82.77;102943.09;6394990;22;45285;-88
2022/03/19 11:10:39;;;;;;;;;59.00;44.25;;;;;18.27;83.63;102932.41;6421401;22;47107;-87
2022/03/19 11:13:08;;;;;;;;;52.25;41.50;;;;;18.42;82.00;102948.19;6422032;22;45498;-88
2022/03/19 11:15:34;;;;;;;;;43.25;36.00;;;;;18.42;81.14;102937.53;6422119;22;45297;-88
2022/03/19 11:18:08;;;;;;;;;54.00;42.75;;;;;18.53;81.98;102928.31;6422564;22;45480;-87
2022/03/19 11:20:35;;;;;;;;;50.50;37.00;;;;;18.58;81.16;102927.63;6395682;22;47026;-87
2022/03/19 11:23:04;;;;;;;;;51.25;40.00;;;;;18.70;81.57;102929.94;6421602;22;45266;-87
2022/03/19 11:25:40;;;;;;;;;52.50;40.25;;;;;18.82;81.35;102918.94;6396722;22;45402;-87
2022/03/19 11:28:08;;;;;;;;;53.75;39.75;;;;;18.91;82.13;102919.41;6395580;22;45339;-87
2022/03/19 11:30:40;;;;;;;;;53.00;43.25;;;;;19.06;81.84;102911.19;6422579;22;47510;-88
2022/03/19 11:33:19;;;;;;;;;46.50;37.25;;;;;19.19;81.83;102912.69;6423744;22;45401;-86
2022/03/19 11:35:48;;;;;;;;;53.50;41.50;;;;;19.27;81.28;102914.75;6395750;22;45279;-86
2022/03/19 11:38:14;;;;;;;;;50.75;39.00;;;;;19.31;80.95;102919.38;6397202;22;45469;-89
2022/03/19 11:40:53;;;;;;;;;53.75;41.50;;;;;19.33;78.52;102900.81;6397576;22;47179;-88
2022/03/19 11:43:25;;;;;;;;;49.25;40.50;;;;;19.53;80.52;102902.56;6423749;22;45311;-87
2022/03/19 11:46:16;;;;;;;;;53.25;41.50;;;;;19.62;79.89;102902.06;6398503;22;45369;-88
2022/03/19 11:48:50;;;;;;;;;53.00;39.25;;;;;19.70;77.94;102899.72;6417081;22;45195;-88
2022/03/19 11:51:25;;;;;;;;;55.00;40.00;;;;;19.82;77.50;102896.63;6419943;22;47153;-88
2022/03/19 11:54:02;;;;;;;;;50.00;38.25;;;;;19.88;75.95;102895.97;6410081;22;45215;-88
2022/03/19 11:56:43;;;;;;;;;51.00;40.00;;;;;19.97;77.16;102896.34;6407491;22;45177;-87
2022/03/19 11:59:21;;;;;;;;;49.75;40.25;;;;;19.96;75.68;102877.63;6400982;22;45357;-88
2022/03/19 12:01:50;;;;;;;;;51.75;37.75;;;;;20.02;75.01;102885.91;6404050;22;47291;-87
2022/03/19 12:04:17;;;;;;;;;52.50;42.75;;;;;20.01;75.79;102880.50;6400888;22;45331;-89
2022/03/19 12:06:56;;;;;;;;;51.50;40.00;;;;;20.11;75.38;102861.34;6403010;22;45437;-87
2022/03/19 12:09:32;;;;;;;;;53.50;41.75;;;;;20.28;75.95;102870.03;6403446;22;44690;-86
2022/03/19 12:12:15;;;;;;;;;52.50;42.00;;;;;20.47;75.14;102867.16;6402221;22;46074;-88
2022/03/19 12:14:42;;;;;;;;;57.75;43.50;;;;;20.48;76.16;102864.56;6400844;22;45271;-87
2022/03/19 12:17:23;;;;;;;;;53.00;42.50;;;;;20.72;75.23;102854.75;6401608;22;45568;-90
2022/03/19 12:19:59;;;;;;;;;56.50;45.00;;;;;20.72;74.45;102852.97;6426009;22;45429;-87
2022/03/19 12:22:36;;;;;;;;;56.50;46.75;;;;;20.96;75.99;102854.72;6422968;22;48062;-86
2022/03/19 12:25:12;;;;;;;;;50.50;38.75;;;;;21.13;72.50;102859.78;6425227;22;45587;-88
2022/03/19 12:27:39;;;;;;;;;46.50;36.25;;;;;21.15;70.88;102851.84;6398631;22;45307;-88
2022/03/19 12:30:05;;;;;;;;;49.50;39.50;;;;;21.31;72.69;102848.81;6399272;22;45269;-90
2022/03/19 12:32:49;;;;;;;;;4.00;3.50;;;;;21.60;72.51;102833.72;6398550;22;45317;-88
2022/03/19 12:35:15;;;;;;;;;49.00;39.00;;;;;21.82;72.93;102834.41;6396030;22;45752;-89
2022/03/19 12:37:49;;;;;;;;;52.25;42.25;;;;;22.29;71.92;102826.06;6399480;22;45279;-91
2022/03/19 12:40:24;;;;;;;;;51.50;42.50;;;;;22.76;72.79;102819.38;6400305;22;45448;-88
2022/03/19 12:42:57;;;;;;;;;50.00;40.75;;;;;23.58;73.07;102816.09;6399895;22;45323;-90
2022/03/19 12:45:40;;;;;;;;;51.25;40.00;;;;;26.52;69.93;102805.06;6400984;22;45351;-87
2022/03/19 12:48:16;;;;;;;;;52.75;41.75;;;;;29.66;73.08;102779.41;6396712;22;45270;-88
2022/03/19 12:50:49;;;;;;;;;51.00;40.75;;;;;32.94;68.27;102791.59;6422800;22;45270;-87
2022/03/19 12:53:15;;;;;;;;;48.50;38.25;;;;;35.31;64.39;102783.66;6394615;22;46160;-88
2022/03/19 12:55:41;;;;;;;;;51.75;41.00;;;;;37.26;55.20;102791.25;6395066;22;45403;-90
2022/03/19 12:58:06;;;;;;;;;46.50;38.25;;;;;38.87;55.65;102773.09;6397927;22;45227;-86
2022/03/19 13:00:32;;;;;;;;;47.50;37.00;;;;;40.50;48.87;102768.22;6397949;22;45371;-89
2022/03/19 13:02:57;;;;;;;;;46.00;38.75;;;;;41.83;52.19;102763.00;6396461;22;47481;-88
2022/03/19 13:05:24;;;;;;;;;45.25;36.50;;;;;43.12;50.89;102763.69;6396478;22;45295;-88
2022/03/19 13:08:09;;;;;;;;;49.50;39.25;;;;;44.58;45.84;102764.38;6396503;22;45276;-89
2022/03/19 13:10:46;;;;;;;;;43.75;33.25;;;;;45.60;43.94;102760.78;6421798;22;45357;-89
2022/03/19 13:13:12;;;;;;;;;46.00;38.25;;;;;46.04;42.48;102749.22;6394281;22;48077;-86
2022/03/19 13:15:50;;;;;;;;;44.75;36.00;;;;;46.35;40.64;102748.72;6396335;22;45435;-88
2022/03/19 13:18:30;;;;;;;;;34.50;31.25;;;;;46.72;38.68;102735.72;6422201;22;45602;-87
2022/03/19 13:20:58;;;;;;;;;44.00;37.75;;;;;47.16;38.07;102749.78;6396425;22;45288;-87
2022/03/19 13:23:23;;;;;;;;;45.25;34.75;;;;;47.30;35.48;102733.84;6397404;22;46147;-89
2022/03/19 13:25:50;;;;;;;;;46.75;37.25;;;;;47.36;33.23;102735.22;6394462;22;45459;-87
2022/03/19 13:28:15;;;;;;;;;42.75;35.50;;;;;47.41;32.02;102727.41;6394569;22;45237;-91
2022/03/19 13:30:44;;;;;;;;;42.75;35.75;;;;;46.30;32.56;102721.34;6395031;22;49589;-87
2022/03/19 13:33:15;;;;;;;;;42.75;35.25;;;;;43.53;33.17;102727.97;6398344;22;47316;-91
2022/03/19 13:35:47;;;;;;;;;45.50;35.75;;;;;40.36;33.13;102713.06;6396823;22;45394;-88
2022/03/19 13:38:14;;;;;;;;;40.75;32.25;;;;;37.58;34.63;102714.34;6398449;22;45391;-87
2022/03/19 13:40:40;;;;;;;;;48.00;38.00;;;;;35.52;35.59;102707.56;6399606;22;45296;-86
2022/03/19 13:43:05;;;;;;;;;46.25;37.00;;;;;33.88;36.59;102700.88;6401008;22;45326;-86
2022/03/19 13:45:34;;;;;;;;;39.67;34.00;;;;;32.60;37.38;102693.34;6407503;22;45237;-88
2022/03/19 13:48:08;;;;;;;;;43.00;35.50;;;;;31.72;37.81;102686.56;6400912;22;45391;-87
2022/03/19 13:50:36;;;;;;;;;47.00;38.00;;;;;31.14;39.11;102689.94;6394579;22;45786;-88
2022/03/19 13:53:04;;;;;;;;;49.00;38.50;;;;;30.74;40.29;102689.41;6394692;22;47554;-87
2022/03/19 13:55:29;;;;;;;;;40.25;35.00;;;;;30.64;40.18;102685.88;6397657;22;45246;-88
2022/03/19 13:57:57;;;;;;;;;47.00;36.00;;;;;31.30;41.79;102687.94;6395116;22;45272;-87
2022/03/19 14:00:27;;;;;;;;;50.50;39.75;;;;;33.08;40.63;102677.13;6396920;22;45300;-90
2022/03/19 14:02:57;;;;;;;;;50.50;39.75;;;;;35.50;41.38;102665.78;6424684;22;48394;-96
2022/03/19 14:05:28;;;;;;;;;47.50;38.00;;;;;38.25;40.85;102664.16;6400073;22;45283;-87
2022/03/19 14:07:57;;;;;;;;;50.75;40.75;;;;;40.60;39.07;102660.44;6404414;22;45218;-88
2022/03/19 14:10:24;;;;;;;;;47.50;39.00;;;;;42.13;37.88;102655.63;6405080;22;45425;-88
2022/03/19 14:13:00;;;;;;;;;43.50;34.00;;;;;43.43;37.78;102647.53;6425380;22;47879;-87
2022/03/19 14:15:35;;;;;;;;;35.75;31.25;;;;;44.35;37.80;102647.88;6400010;22;45598;-88
2022/03/19 14:18:01;;;;;;;;;45.75;37.00;;;;;45.30;35.69;102641.03;6396037;22;45379;-89
2022/03/19 14:20:26;;;;;;;;;46.75;37.25;;;;;46.26;31.88;102636.56;6398560;22;45640;-91
2022/03/19 14:22:52;;;;;;;;;38.50;33.25;;;;;45.76;33.14;102644.06;6399920;22;47189;-88
2022/03/19 14:25:18;;;;;;;;;40.00;33.25;;;;;45.32;33.76;102632.59;6401241;22;58020;-88
2022/03/19 14:27:45;;;;;;;;;42.75;34.50;;;;;44.77;32.71;102623.63;6401781;22;45398;-88
2022/03/19 14:30:12;;;;;;;;;44.50;36.75;;;;;45.42;33.71;102625.38;6400545;22;45276;-88
2022/03/19 14:32:39;;;;;;;;;43.00;35.00;;;;;46.48;33.41;102620.94;6397047;22;47130;-89
2022/03/19 14:35:05;;;;;;;;;49.25;39.50;;;;;47.62;31.53;102630.19;6425744;22;45491;-89
2022/03/19 14:37:30;;;;;;;;;49.50;40.25;;;;;48.50;33.94;102617.03;6402810;22;45291;-88
2022/03/19 14:39:56;;;;;;;;;51.50;41.25;;;;;49.44;33.51;102624.34;6401444;22;45289;-87
2022/03/19 14:42:22;;;;;;;;;46.75;38.25;;;;;49.57;33.27;102623.16;6398171;22;45373;-87
2022/03/19 14:44:49;;;;;;;;;48.00;40.00;;;;;49.20;31.63;102617.28;6422174;22;45600;-88
2022/03/19 14:47:15;;;;;;;;;47.50;38.50;;;;;47.79;31.21;102613.03;6398434;22;45245;-88
2022/03/19 14:49:41;;;;;;;;;49.00;39.25;;;;;45.04;31.62;102610.66;6423572;22;45283;-88
2022/03/19 14:52:07;;;;;;;;;48.50;40.00;;;;;42.08;32.29;102606.28;6398511;22;46491;-88
2022/03/19 14:54:32;;;;;;;;;50.50;38.50;;;;;39.32;33.21;102606.34;6398942;22;45290;-87
2022/03/19 14:56:58;;;;;;;;;48.25;38.25;;;;;36.81;34.42;102604.97;6397035;22;45392;-89
2022/03/19 14:59:23;;;;;;;;;48.00;38.50;;;;;34.76;35.59;102594.22;6399190;22;45612;-89
2022/03/19 15:01:48;;;;;;;;;49.50;40.50;;;;;33.07;36.95;102604.59;6396546;22;46062;-89
2022/03/19 15:04:14;;;;;;;;;47.75;37.00;;;;;31.57;37.84;102587.25;6403004;22;45248;-89
2022/03/19 15:06:39;;;;;;;;;39.75;35.50;;;;;30.32;39.17;102587.75;6398536;22;45417;-89
2022/03/19 15:09:05;;;;;;;;;52.25;42.00;;;;;29.25;40.24;102589.31;6423127;22;45473;-88
2022/03/19 15:11:31;;;;;;;;;58.75;44.25;;;;;28.30;41.75;102585.84;6399057;22;45390;-88
2022/03/19 15:13:59;;;;;;;;;50.75;41.25;;;;;27.38;42.49;102595.59;6394955;22;45393;-88
2022/03/19 15:16:25;;;;;;;;;54.25;42.25;;;;;26.60;43.47;102592.41;6397404;22;45426;-88
2022/03/19 15:18:52;;;;;;;;;53.50;42.25;;;;;25.94;44.38;102589.16;6396622;22;45437;-87
2022/03/19 15:21:18;;;;;;;;;55.25;42.75;;;;;25.39;44.90;102583.16;6422695;22;47460;-87
2022/03/19 15:23:43;;;;;;;;;55.50;44.00;;;;;24.93;46.02;102578.94;6395169;22;45241;-89
2022/03/19 15:26:09;;;;;;;;;53.00;44.00;;;;;24.52;46.63;102568.53;6398931;22;45390;-87
2022/03/19 15:28:34;;;;;;;;;54.25;41.75;;;;;24.19;47.09;102569.72;6395975;22;45488;-87
2022/03/19 15:31:00;;;;;;;;;51.75;41.25;;;;;23.88;48.17;102573.69;6395248;22;46925;-87
2022/03/19 15:33:25;;;;;;;;;54.00;43.00;;;;;23.60;48.82;102574.91;6416056;22;44711;-88
2022/03/19 15:35:50;;;;;;;;;51.75;42.00;;;;;23.30;49.35;102561.78;6424427;22;44675;-88
2022/03/19 15:38:16;;;;;;;;;56.50;44.75;;;;;23.03;49.18;102563.00;6441153;22;45293;-88
2022/03/19 15:40:42;;;;;;;;;58.25;44.25;;;;;22.82;49.78;102556.31;6402764;22;48044;-87
2022/03/19 15:43:10;;;;;;;;;51.50;42.00;;;;;22.64;50.43;102549.63;6396901;22;45388;-88
2022/03/19 15:45:35;;;;;;;;;51.50;42.00;;;;;22.40;51.09;102553.50;6397420;22;45366;-88
2022/03/19 15:48:01;;;;;;;;;55.00;43.50;;;;;22.23;51.94;102558.44;6397940;22;45262;-87
2022/03/19 15:50:27;;;;;;;;;52.25;38.25;;;;;22.03;51.55;102564.19;6396395;22;46012;-89
2022/03/19 15:52:52;;;;;;;;;48.25;39.00;;;;;21.86;52.20;102548.56;6397129;22;45260;-88
2022/03/19 15:55:19;;;;;;;;;49.75;39.50;;;;;21.67;52.28;102547.16;6397729;22;45227;-89
2022/03/19 15:57:45;;;;;;;;;49.00;40.25;;;;;21.53;52.49;102546.75;6397288;22;45287;-89
2022/03/19 16:00:10;;;;;;;;;48.25;41.00;;;;;21.38;52.29;102539.22;6396311;22;45305;-88
2022/03/19 16:02:36;;;;;;;;;48.50;37.50;;;;;21.24;52.74;102537.03;6394060;22;45367;-88
2022/03/19 16:05:01;;;;;;;;;49.25;39.50;;;;;21.17;53.11;102532.38;6396986;22;45569;-88
2022/03/19 16:07:26;;;;;;;;;50.25;42.00;;;;;21.06;53.30;102521.38;6420326;22;45625;-88
2022/03/19 16:09:53;;;;;;;;;50.50;40.25;;;;;20.95;53.74;102516.59;6397645;22;49648;-87
2022/03/19 16:12:21;;;;;;;;;52.25;42.00;;;;;20.88;53.29;102525.25;6396494;22;45258;-89
2022/03/19 16:14:51;;;;;;;;;47.50;40.75;;;;;20.75;53.25;102524.88;6396370;22;45281;-88
2022/03/19 16:17:17;;;;;;;;;42.50;35.00;;;;;20.64;53.58;102508.53;6394818;22;45352;-89
2022/03/19 16:19:43;;;;;;;;;45.25;38.50;;;;;20.51;53.89;102515.25;6421567;22;48138;-89
2022/03/19 16:22:08;;;;;;;;;52.75;39.50;;;;;20.50;54.00;102512.53;6421929;22;45753;-88
2022/03/19 16:24:33;;;;;;;;;44.25;35.00;;;;;20.46;54.06;102510.63;6422260;22;45269;-90
2022/03/19 16:26:59;;;;;;;;;51.50;38.25;;;;;20.35;54.35;102505.88;6421646;22;45287;-90
2022/03/19 16:29:24;;;;;;;;;39.25;33.50;;;;;20.28;54.07;102502.06;6393928;22;47171;-88
2022/03/19 16:31:49;;;;;;;;;44.50;35.50;;;;;20.19;54.57;102510.69;6394012;22;61578;-88
2022/03/19 16:34:15;;;;;;;;;50.50;38.75;;;;;20.14;54.60;102506.03;6422861;22;45262;-88
2022/03/19 16:36:52;;;;;;;;;48.75;36.50;;;;;20.13;54.66;102521.13;6422683;22;45576;-88
2022/03/19 16:39:18;;;;;;;;;47.75;37.50;;;;;20.01;54.85;102516.25;6422712;22;46146;-87
2022/03/19 16:41:44;;;;;;;;;43.00;36.00;;;;;19.95;55.09;102516.94;6394438;22;45318;-87
2022/03/19 16:44:09;;;;;;;;;40.50;33.00;;;;;19.86;55.23;102506.91;6394174;22;45385;-87
2022/03/19 16:46:35;;;;;;;;;22.75;14.75;;;;;19.81;55.57;102521.81;6422614;22;45442;-88
2022/03/19 16:49:00;;;;;;;;;39.50;34.50;;;;;19.73;55.05;102510.88;6393942;22;47453;-87
2022/03/19 16:51:25;;;;;;;;;38.00;34.25;;;;;19.69;55.27;102505.41;6393390;22;45389;-86
2022/03/19 16:53:51;;;;;;;;;43.25;35.00;;;;;19.62;56.00;102504.25;6392967;22;45422;-87
2022/03/19 16:56:16;;;;;;;;;34.25;32.00;;;;;19.55;55.68;102508.47;6396451;22;51093;-87
2022/03/19 16:58:41;;;;;;;;;46.00;35.00;;;;;19.49;55.58;102505.56;6420837;22;46019;-87
2022/03/19 17:01:07;;;;;;;;;44.25;33.00;;;;;19.44;56.11;102497.41;6394345;22;45620;-87
2022/03/19 17:03:32;;;;;;;;;32.75;30.50;;;;;19.39;55.97;102489.25;6421449;22;45328;-87
2022/03/19 17:05:57;;;;;;;;;29.25;26.00;;;;;19.36;56.47;102497.13;6396572;22;47567;-88
2022/03/19 17:08:22;;;;;;;;;33.25;27.75;;;;;19.30;56.27;102491.59;6422162;22;48092;-88
2022/03/19 17:10:48;;;;;;;;;30.00;27.50;;;;;19.25;56.10;102493.19;6397418;22;45672;-87
2022/03/19 17:13:14;;;;;;;;;32.25;27.25;;;;;19.17;56.25;102491.06;6397645;22;45293;-87
2022/03/19 17:15:39;;;;;;;;;33.00;28.00;;;;;19.10;56.81;102497.94;6395805;22;45403;-87
2022/03/19 17:18:05;;;;;;;;;30.75;23.50;;;;;19.04;56.75;102500.38;6395718;22;46995;-88
2022/03/19 17:20:30;;;;;;;;;31.50;27.75;;;;;19.02;56.79;102490.53;6395886;22;45261;-87
2022/03/19 17:22:55;;;;;;;;;38.25;30.75;;;;;18.98;57.15;102493.06;6396181;22;45402;-87
2022/03/19 17:25:21;;;;;;;;;34.75;26.75;;;;;18.96;56.88;102493.84;6397263;22;45473;-87
2022/03/19 17:27:46;;;;;;;;;29.00;22.25;;;;;18.91;56.86;102491.03;6395063;22;47413;-87
2022/03/19 17:30:12;;;;;;;;;18.75;18.75;;;;;18.85;57.28;102504.06;6402919;22;45271;-87
2022/03/19 17:32:39;;;;;;;;;32.25;27.75;;;;;18.79;57.18;102494.09;6398490;22;45366;-87
2022/03/19 17:35:05;;;;;;;;;29.25;26.75;;;;;18.74;57.89;102501.88;6398032;22;45330;-87
2022/03/19 17:37:31;;;;;;;;;27.50;25.00;;;;;18.68;57.67;102500.75;6422183;22;48342;-87
2022/03/19 17:39:56;;;;;;;;;27.50;24.25;;;;;18.65;58.10;102504.19;6423577;22;45344;-87
2022/03/19 17:42:23;;;;;;;;;33.67;28.33;;;;;18.60;58.24;102500.44;6398622;22;45428;-87
2022/03/19 17:44:49;;;;;;;;;29.50;23.25;;;;;18.55;58.38;102500.28;6398617;22;45392;-87
2022/03/19 17:47:14;;;;;;;;;31.00;26.75;;;;;18.48;59.04;102485.78;6398744;22;46568;-88
2022/03/19 17:49:40;;;;;;;;;27.75;19.25;;;;;18.42;59.21;102486.47;6422711;22;45834;-87
2022/03/19 17:52:05;;;;;;;;;27.50;25.75;;;;;18.37;59.43;102495.09;6396054;22;45479;-88
2022/03/19 17:54:31;;;;;;;;;28.00;25.25;;;;;18.29;59.77;102502.75;6423362;22;45545;-87
2022/03/19 17:56:58;;;;;;;;;29.25;26.00;;;;;18.23;59.80;102508.72;6397145;22;46135;-87
2022/03/19 17:59:23;;;;;;;;;28.25;23.50;;;;;18.20;59.72;102505.94;6397735;22;45253;-85
2022/03/19 18:01:49;;;;;;;;;25.00;22.33;;;;;18.18;59.85;102516.47;6422180;22;45346;-88
2022/03/19 18:04:15;;;;;;;;;25.00;20.00;;;;;18.12;60.10;102505.56;6422922;22;45613;-90
2022/03/19 18:06:40;;;;;;;;;29.00;21.75;;;;;18.07;59.74;102496.50;6396126;22;48116;-87
2022/03/19 18:09:06;;;;;;;;;23.75;20.75;;;;;18.01;59.95;102501.56;6395411;22;45751;-87
2022/03/19 18:11:31;;;;;;;;;30.25;23.50;;;;;17.95;60.10;102496.91;6395929;22;45340;-88
2022/03/19 18:13:56;;;;;;;;;27.00;22.50;;;;;17.90;60.21;102496.69;6397340;22;45457;-87
2022/03/19 18:16:22;;;;;;;;;28.50;23.00;;;;;17.89;59.96;102510.81;6396559;22;46835;-87
2022/03/19 18:18:47;;;;;;;;;24.67;19.67;;;;;17.85;59.90;102507.13;6398563;22;45488;-88